sensor_id;sensor_type;location;lat;lon;timestamp;P1;durP1;ratioP1;P2;durP2;ratioP2
37169;SDS011;23062;13.952;100.608;2023-10-19T00:02:40;18.00;;;13.00;;
37169;SDS011;23062;13.952;100.608;2023-10-19T00:07:18;17.00;;;13.00;;
37169;SDS011;23062;13.952;100.608;2023-10-19T00:12:03;16.00;;;11.00;;
37169;SDS011;23062;13.952;100.608;2023-10-19T00:16:48;17.00;;;13.00;;
37169;SDS011;23062;13.952;100.608;2023-10-19T00:21:34;19.00;;;14.00;;
37169;SDS011;23062;13.952;100.608;2023-10-19T00:26:21;18.00;;;13.00;;
37169;SDS011;23062;13.952;100.608;2023-10-19T00:31:10;19.00;;;14.00;;
37169;SDS011;23062;13.952;100.608;2023-10-19T00:35:55;19.00;;;13.00;;
37169;SDS011;23062;13.952;100.608;2023-10-19T00:40:53;18.00;;;13.00;;
37169;SDS011;23062;13.952;100.608;2023-10-19T00:45:42;19.00;;;13.00;;
37169;SDS011;23062;13.952;100.608;2023-10-19T00:50:26;19.00;;;14.00;;
37169;SDS011;23062;13.952;100.608;2023-10-19T00:55:10;19.00;;;14.00;;
37169;SDS011;23062;13.952;100.608;2023-10-19T00:59:58;21.00;;;15.00;;
37169;SDS011;23062;13.952;100.608;2023-10-19T01:04:56;19.00;;;15.00;;
37169;SDS011;23062;13.952;100.608;2023-10-19T01:09:40;19.00;;;14.00;;
37169;SDS011;23062;13.952;100.608;2023-10-19T01:14:25;22.00;;;16.00;;
37169;SDS011;23062;13.952;100.608;2023-10-19T01:19:08;22.00;;;17.00;;
37169;SDS011;23062;13.952;100.608;2023-10-19T01:23:52;18.00;;;13.00;;
37169;SDS011;23062;13.952;100.608;2023-10-19T01:28:35;21.00;;;15.00;;
37169;SDS011;23062;13.952;100.608;2023-10-19T01:33:25;22.00;;;17.00;;
37169;SDS011;23062;13.952;100.608;2023-10-19T01:38:11;21.00;;;16.00;;
37169;SDS011;23062;13.952;100.608;2023-10-19T01:42:55;21.00;;;16.00;;
37169;SDS011;23062;13.952;100.608;2023-10-19T01:47:35;21.47;;;15.87;;
37169;SDS011;23062;13.952;100.608;2023-10-19T01:52:19;19.00;;;14.00;;
37169;SDS011;23062;13.952;100.608;2023-10-19T01:57:02;21.00;;;16.00;;
37169;SDS011;23062;13.952;100.608;2023-10-19T02:01:43;25.00;;;18.00;;
37169;SDS011;23062;13.952;100.608;2023-10-19T02:06:33;21.00;;;16.00;;
37169;SDS011;23062;13.952;100.608;2023-10-19T02:11:20;20.00;;;14.00;;
37169;SDS011;23062;13.952;100.608;2023-10-19T02:16:03;25.00;;;18.00;;
37169;SDS011;23062;13.952;100.608;2023-10-19T02:20:47;22.00;;;17.00;;
37169;SDS011;23062;13.952;100.608;2023-10-19T02:25:33;27.00;;;19.00;;
37169;SDS011;23062;13.952;100.608;2023-10-19T02:30:18;26.00;;;19.00;;
37169;SDS011;23062;13.952;100.608;2023-10-19T02:35:04;23.00;;;17.00;;
37169;SDS011;23062;13.952;100.608;2023-10-19T02:39:51;21.00;;;15.00;;
37169;SDS011;23062;13.952;100.608;2023-10-19T02:44:27;23.00;;;17.00;;
37169;SDS011;23062;13.952;100.608;2023-10-19T02:49:06;24.00;;;17.00;;
37169;SDS011;23062;13.952;100.608;2023-10-19T02:53:48;23.00;;;18.00;;
37169;SDS011;23062;13.952;100.608;2023-10-19T02:58:32;29.00;;;22.00;;
37169;SDS011;23062;13.952;100.608;2023-10-19T03:03:15;24.00;;;19.00;;
37169;SDS011;23062;13.952;100.608;2023-10-19T03:07:59;27.00;;;21.00;;
37169;SDS011;23062;13.952;100.608;2023-10-19T03:12:46;29.00;;;21.00;;
37169;SDS011;23062;13.952;100.608;2023-10-19T03:17:29;30.00;;;22.00;;
37169;SDS011;23062;13.952;100.608;2023-10-19T03:22:13;31.00;;;23.00;;
37169;SDS011;23062;13.952;100.608;2023-10-19T03:26:58;31.00;;;23.00;;
37169;SDS011;23062;13.952;100.608;2023-10-19T03:31:45;35.00;;;26.00;;
37169;SDS011;23062;13.952;100.608;2023-10-19T03:36:23;32.00;;;24.00;;
37169;SDS011;23062;13.952;100.608;2023-10-19T03:41:09;34.00;;;25.00;;
37169;SDS011;23062;13.952;100.608;2023-10-19T03:45:53;31.00;;;24.00;;
37169;SDS011;23062;13.952;100.608;2023-10-19T03:50:32;33.00;;;25.00;;
37169;SDS011;23062;13.952;100.608;2023-10-19T03:55:18;38.00;;;28.00;;
37169;SDS011;23062;13.952;100.608;2023-10-19T03:59:55;34.00;;;25.00;;
37169;SDS011;23062;13.952;100.608;2023-10-19T04:04:36;37.00;;;28.00;;
37169;SDS011;23062;13.952;100.608;2023-10-19T04:09:21;34.00;;;27.00;;
37169;SDS011;23062;13.952;100.608;2023-10-19T04:14:01;36.00;;;27.00;;
37169;SDS011;23062;13.952;100.608;2023-10-19T04:18:44;39.00;;;31.00;;
37169;SDS011;23062;13.952;100.608;2023-10-19T04:23:29;41.00;;;32.00;;
37169;SDS011;23062;13.952;100.608;2023-10-19T04:28:16;40.00;;;29.00;;
37169;SDS011;23062;13.952;100.608;2023-10-19T04:33:02;40.00;;;29.00;;
37169;SDS011;23062;13.952;100.608;2023-10-19T04:37:43;41.00;;;31.00;;
37169;SDS011;23062;13.952;100.608;2023-10-19T04:42:27;43.00;;;32.00;;
37169;SDS011;23062;13.952;100.608;2023-10-19T04:47:12;45.00;;;33.00;;
37169;SDS011;23062;13.952;100.608;2023-10-19T04:51:57;42.00;;;33.00;;
37169;SDS011;23062;13.952;100.608;2023-10-19T04:56:42;42.00;;;33.00;;
37169;SDS011;23062;13.952;100.608;2023-10-19T05:01:25;44.00;;;32.00;;
37169;SDS011;23062;13.952;100.608;2023-10-19T05:06:05;42.00;;;30.00;;
37169;SDS011;23062;13.952;100.608;2023-10-19T05:10:48;37.00;;;29.00;;
37169;SDS011;23062;13.952;100.608;2023-10-19T05:15:35;42.00;;;32.00;;
37169;SDS011;23062;13.952;100.608;2023-10-19T05:20:18;42.00;;;31.00;;
37169;SDS011;23062;13.952;100.608;2023-10-19T05:25:02;40.00;;;30.00;;
37169;SDS011;23062;13.952;100.608;2023-10-19T05:29:49;38.00;;;30.00;;
37169;SDS011;23062;13.952;100.608;2023-10-19T05:34:35;36.00;;;28.00;;
37169;SDS011;23062;13.952;100.608;2023-10-19T05:39:19;34.00;;;26.00;;
37169;SDS011;23062;13.952;100.608;2023-10-19T05:44:03;34.53;;;27.07;;
37169;SDS011;23062;13.952;100.608;2023-10-19T05:48:42;43.00;;;31.00;;
37169;SDS011;23062;13.952;100.608;2023-10-19T05:53:20;39.00;;;30.00;;
37169;SDS011;23062;13.952;100.608;2023-10-19T05:58:10;38.00;;;30.00;;
37169;SDS011;23062;13.952;100.608;2023-10-19T06:02:53;40.00;;;30.00;;
37169;SDS011;23062;13.952;100.608;2023-10-19T06:07:37;42.00;;;32.00;;
37169;SDS011;23062;13.952;100.608;2023-10-19T06:12:19;45.00;;;34.00;;
37169;SDS011;23062;13.952;100.608;2023-10-19T06:16:57;42.00;;;31.00;;
37169;SDS011;23062;13.952;100.608;2023-10-19T06:21:43;43.00;;;33.00;;
37169;SDS011;23062;13.952;100.608;2023-10-19T06:26:28;39.00;;;31.00;;
37169;SDS011;23062;13.952;100.608;2023-10-19T06:31:13;41.00;;;30.00;;
37169;SDS011;23062;13.952;100.608;2023-10-19T06:35:52;39.00;;;28.00;;
37169;SDS011;23062;13.952;100.608;2023-10-19T06:40:34;37.00;;;28.00;;
37169;SDS011;23062;13.952;100.608;2023-10-19T06:45:18;39.00;;;31.00;;
37169;SDS011;23062;13.952;100.608;2023-10-19T06:50:00;39.00;;;30.00;;
37169;SDS011;23062;13.952;100.608;2023-10-19T06:54:42;40.00;;;31.00;;
37169;SDS011;23062;13.952;100.608;2023-10-19T06:59:24;34.53;;;26.13;;
37169;SDS011;23062;13.952;100.608;2023-10-19T07:04:17;43.00;;;31.00;;
37169;SDS011;23062;13.952;100.608;2023-10-19T07:09:01;40.00;;;30.00;;
37169;SDS011;23062;13.952;100.608;2023-10-19T07:13:42;50.00;;;37.00;;
37169;SDS011;23062;13.952;100.608;2023-10-19T07:18:23;50.00;;;39.00;;
37169;SDS011;23062;13.952;100.608;2023-10-19T07:23:09;33.00;;;26.00;;
37169;SDS011;23062;13.952;100.608;2023-10-19T07:27:51;34.00;;;25.00;;
37169;SDS011;23062;13.952;100.608;2023-10-19T07:32:34;27.00;;;21.00;;
37169;SDS011;23062;13.952;100.608;2023-10-19T07:37:20;29.00;;;23.00;;
37169;SDS011;23062;13.952;100.608;2023-10-19T07:42:07;25.00;;;18.00;;
37169;SDS011;23062;13.952;100.608;2023-10-19T07:46:53;26.00;;;20.00;;
37169;SDS011;23062;13.952;100.608;2023-10-19T07:51:36;27.00;;;21.00;;
37169;SDS011;23062;13.952;100.608;2023-10-19T07:56:14;33.00;;;24.00;;
37169;SDS011;23062;13.952;100.608;2023-10-19T08:00:58;35.00;;;26.00;;
37169;SDS011;23062;13.952;100.608;2023-10-19T08:05:43;31.00;;;23.00;;
37169;SDS011;23062;13.952;100.608;2023-10-19T08:10:27;29.00;;;23.00;;
37169;SDS011;23062;13.952;100.608;2023-10-19T08:15:10;35.00;;;26.00;;
37169;SDS011;23062;13.952;100.608;2023-10-19T08:19:57;36.00;;;27.00;;
37169;SDS011;23062;13.952;100.608;2023-10-19T08:24:41;37.00;;;27.00;;
37169;SDS011;23062;13.952;100.608;2023-10-19T08:29:28;35.00;;;27.00;;
37169;SDS011;23062;13.952;100.608;2023-10-19T08:34:12;34.00;;;27.00;;
37169;SDS011;23062;13.952;100.608;2023-10-19T08:38:57;35.00;;;27.00;;
37169;SDS011;23062;13.952;100.608;2023-10-19T08:43:42;35.00;;;27.00;;
37169;SDS011;23062;13.952;100.608;2023-10-19T08:48:32;39.00;;;30.00;;
37169;SDS011;23062;13.952;100.608;2023-10-19T08:53:19;40.00;;;31.00;;
37169;SDS011;23062;13.952;100.608;2023-10-19T08:58:05;39.00;;;30.00;;
37169;SDS011;23062;13.952;100.608;2023-10-19T09:02:50;43.00;;;32.00;;
37169;SDS011;23062;13.952;100.608;2023-10-19T09:07:34;43.00;;;33.00;;
37169;SDS011;23062;13.952;100.608;2023-10-19T09:12:19;44.00;;;33.00;;
37169;SDS011;23062;13.952;100.608;2023-10-19T09:17:03;38.00;;;30.00;;
37169;SDS011;23062;13.952;100.608;2023-10-19T09:21:40;45.00;;;33.00;;
37169;SDS011;23062;13.952;100.608;2023-10-19T09:26:27;44.00;;;32.00;;
37169;SDS011;23062;13.952;100.608;2023-10-19T09:31:12;39.00;;;30.00;;
37169;SDS011;23062;13.952;100.608;2023-10-19T09:35:53;41.00;;;30.00;;
37169;SDS011;23062;13.952;100.608;2023-10-19T09:40:40;37.00;;;28.00;;
37169;SDS011;23062;13.952;100.608;2023-10-19T09:45:24;39.00;;;28.00;;
37169;SDS011;23062;13.952;100.608;2023-10-19T09:50:10;35.00;;;26.00;;
37169;SDS011;23062;13.952;100.608;2023-10-19T09:59:51;35.00;;;25.00;;
37169;SDS011;23062;13.952;100.608;2023-10-19T10:04:31;30.00;;;23.00;;
37169;SDS011;23062;13.952;100.608;2023-10-19T10:09:16;35.00;;;27.00;;
37169;SDS011;23062;13.952;100.608;2023-10-19T10:14:04;32.00;;;23.00;;
37169;SDS011;23062;13.952;100.608;2023-10-19T10:18:50;35.00;;;26.00;;
37169;SDS011;23062;13.952;100.608;2023-10-19T10:23:39;32.00;;;25.00;;
37169;SDS011;23062;13.952;100.608;2023-10-19T10:28:23;33.00;;;25.00;;
37169;SDS011;23062;13.952;100.608;2023-10-19T10:33:08;38.00;;;28.00;;
37169;SDS011;23062;13.952;100.608;2023-10-19T10:37:56;37.00;;;27.00;;
37169;SDS011;23062;13.952;100.608;2023-10-19T10:42:40;34.00;;;25.00;;
37169;SDS011;23062;13.952;100.608;2023-10-19T10:47:25;35.00;;;26.00;;
37169;SDS011;23062;13.952;100.608;2023-10-19T10:52:23;37.00;;;28.00;;
37169;SDS011;23062;13.952;100.608;2023-10-19T10:57:06;37.00;;;28.00;;
37169;SDS011;23062;13.952;100.608;2023-10-19T11:01:50;38.00;;;28.00;;
37169;SDS011;23062;13.952;100.608;2023-10-19T11:06:45;39.00;;;29.00;;
37169;SDS011;23062;13.952;100.608;2023-10-19T11:11:36;38.00;;;29.00;;
37169;SDS011;23062;13.952;100.608;2023-10-19T11:16:22;36.00;;;26.00;;
37169;SDS011;23062;13.952;100.608;2023-10-19T11:20:58;36.00;;;27.00;;
37169;SDS011;23062;13.952;100.608;2023-10-19T11:25:40;38.00;;;29.00;;
37169;SDS011;23062;13.952;100.608;2023-10-19T11:30:25;42.00;;;33.00;;
37169;SDS011;23062;13.952;100.608;2023-10-19T11:35:09;42.00;;;31.00;;
37169;SDS011;23062;13.952;100.608;2023-10-19T11:39:52;36.40;;;27.07;;
37169;SDS011;23062;13.952;100.608;2023-10-19T11:44:37;43.00;;;32.00;;
37169;SDS011;23062;13.952;100.608;2023-10-19T11:49:22;49.00;;;38.00;;
37169;SDS011;23062;13.952;100.608;2023-10-19T11:53:59;47.00;;;35.00;;
37169;SDS011;23062;13.952;100.608;2023-10-19T11:58:36;52.00;;;39.00;;
37169;SDS011;23062;13.952;100.608;2023-10-19T12:03:23;42.00;;;33.00;;
37169;SDS011;23062;13.952;100.608;2023-10-19T12:08:06;50.00;;;37.00;;
37169;SDS011;23062;13.952;100.608;2023-10-19T12:12:52;45.00;;;33.00;;
37169;SDS011;23062;13.952;100.608;2023-10-19T12:17:40;41.00;;;31.00;;
37169;SDS011;23062;13.952;100.608;2023-10-19T12:22:17;36.00;;;26.00;;
37169;SDS011;23062;13.952;100.608;2023-10-19T12:26:58;33.00;;;24.00;;
37169;SDS011;23062;13.952;100.608;2023-10-19T12:31:44;37.00;;;28.00;;
37169;SDS011;23062;13.952;100.608;2023-10-19T12:36:26;39.00;;;28.00;;
37169;SDS011;23062;13.952;100.608;2023-10-19T12:41:07;39.00;;;30.00;;
37169;SDS011;23062;13.952;100.608;2023-10-19T12:45:55;37.00;;;28.00;;
37169;SDS011;23062;13.952;100.608;2023-10-19T12:50:43;40.00;;;31.00;;
37169;SDS011;23062;13.952;100.608;2023-10-19T12:55:24;39.00;;;29.00;;
37169;SDS011;23062;13.952;100.608;2023-10-19T13:00:12;32.00;;;24.00;;
37169;SDS011;23062;13.952;100.608;2023-10-19T13:05:14;31.00;;;24.00;;
37169;SDS011;23062;13.952;100.608;2023-10-19T13:10:02;37.00;;;28.00;;
37169;SDS011;23062;13.952;100.608;2023-10-19T13:14:47;33.00;;;25.00;;
37169;SDS011;23062;13.952;100.608;2023-10-19T13:19:38;38.00;;;28.00;;
37169;SDS011;23062;13.952;100.608;2023-10-19T13:24:25;40.00;;;29.00;;
37169;SDS011;23062;13.952;100.608;2023-10-19T13:29:14;44.00;;;33.00;;
37169;SDS011;23062;13.952;100.608;2023-10-19T13:34:00;48.00;;;37.00;;
37169;SDS011;23062;13.952;100.608;2023-10-19T13:38:46;52.00;;;39.00;;
37169;SDS011;23062;13.952;100.608;2023-10-19T13:43:33;63.00;;;46.00;;
37169;SDS011;23062;13.952;100.608;2023-10-19T13:48:20;66.00;;;51.00;;
37169;SDS011;23062;13.952;100.608;2023-10-19T13:53:08;75.00;;;56.00;;
37169;SDS011;23062;13.952;100.608;2023-10-19T13:57:49;77.00;;;57.00;;
37169;SDS011;23062;13.952;100.608;2023-10-19T14:02:35;79.00;;;59.00;;
37169;SDS011;23062;13.952;100.608;2023-10-19T14:07:24;87.00;;;64.00;;
37169;SDS011;23062;13.952;100.608;2023-10-19T14:12:04;101.00;;;76.00;;
37169;SDS011;23062;13.952;100.608;2023-10-19T14:16:52;102.00;;;79.00;;
37169;SDS011;23062;13.952;100.608;2023-10-19T14:21:38;110.00;;;82.00;;
37169;SDS011;23062;13.952;100.608;2023-10-19T14:26:26;109.00;;;81.00;;
37169;SDS011;23062;13.952;100.608;2023-10-19T14:31:16;107.00;;;81.00;;
37169;SDS011;23062;13.952;100.608;2023-10-19T14:36:02;107.00;;;80.00;;
37169;SDS011;23062;13.952;100.608;2023-10-19T14:40:41;102.00;;;77.00;;
37169;SDS011;23062;13.952;100.608;2023-10-19T14:45:25;110.00;;;87.00;;
37169;SDS011;23062;13.952;100.608;2023-10-19T14:50:12;114.00;;;87.00;;
37169;SDS011;23062;13.952;100.608;2023-10-19T14:54:55;107.00;;;85.00;;
37169;SDS011;23062;13.952;100.608;2023-10-19T14:59:41;109.00;;;87.00;;
37169;SDS011;23062;13.952;100.608;2023-10-19T15:04:27;113.00;;;88.00;;
37169;SDS011;23062;13.952;100.608;2023-10-19T15:09:04;115.00;;;85.00;;
37169;SDS011;23062;13.952;100.608;2023-10-19T15:13:49;105.00;;;80.00;;
37169;SDS011;23062;13.952;100.608;2023-10-19T15:18:33;109.00;;;85.00;;
37169;SDS011;23062;13.952;100.608;2023-10-19T15:23:18;115.00;;;89.00;;
37169;SDS011;23062;13.952;100.608;2023-10-19T15:28:01;103.00;;;80.00;;
37169;SDS011;23062;13.952;100.608;2023-10-19T15:32:46;108.00;;;81.00;;
37169;SDS011;23062;13.952;100.608;2023-10-19T15:37:34;100.00;;;79.00;;
37169;SDS011;23062;13.952;100.608;2023-10-19T15:42:13;106.00;;;83.00;;
37169;SDS011;23062;13.952;100.608;2023-10-19T15:46:59;115.00;;;85.00;;
37169;SDS011;23062;13.952;100.608;2023-10-19T15:51:44;104.00;;;79.00;;
37169;SDS011;23062;13.952;100.608;2023-10-19T15:56:29;110.00;;;85.00;;
37169;SDS011;23062;13.952;100.608;2023-10-19T16:01:13;113.00;;;84.00;;
37169;SDS011;23062;13.952;100.608;2023-10-19T16:05:58;114.00;;;86.00;;
37169;SDS011;23062;13.952;100.608;2023-10-19T16:10:38;111.00;;;83.00;;
37169;SDS011;23062;13.952;100.608;2023-10-19T16:15:23;110.00;;;81.00;;
37169;SDS011;23062;13.952;100.608;2023-10-19T16:20:02;101.00;;;79.00;;
37169;SDS011;23062;13.952;100.608;2023-10-19T16:24:50;112.00;;;84.00;;
37169;SDS011;23062;13.952;100.608;2023-10-19T16:29:28;109.00;;;82.00;;
37169;SDS011;23062;13.952;100.608;2023-10-19T16:34:13;115.00;;;89.00;;
37169;SDS011;23062;13.952;100.608;2023-10-19T16:39:00;106.00;;;82.00;;
37169;SDS011;23062;13.952;100.608;2023-10-19T16:43:42;111.00;;;82.00;;
37169;SDS011;23062;13.952;100.608;2023-10-19T16:48:27;102.00;;;81.00;;
37169;SDS011;23062;13.952;100.608;2023-10-19T16:53:05;110.00;;;85.00;;
37169;SDS011;23062;13.952;100.608;2023-10-19T16:57:50;119.00;;;89.00;;
37169;SDS011;23062;13.952;100.608;2023-10-19T17:02:30;119.00;;;88.00;;
37169;SDS011;23062;13.952;100.608;2023-10-19T17:07:15;108.00;;;86.00;;
37169;SDS011;23062;13.952;100.608;2023-10-19T17:11:59;120.00;;;90.00;;
37169;SDS011;23062;13.952;100.608;2023-10-19T17:16:36;119.00;;;92.00;;
37169;SDS011;23062;13.952;100.608;2023-10-19T17:21:13;110.00;;;88.00;;
37169;SDS011;23062;13.952;100.608;2023-10-19T17:25:50;118.00;;;89.00;;
37169;SDS011;23062;13.952;100.608;2023-10-19T17:30:34;113.00;;;89.00;;
37169;SDS011;23062;13.952;100.608;2023-10-19T17:35:13;119.00;;;90.00;;
37169;SDS011;23062;13.952;100.608;2023-10-19T17:39:58;113.00;;;87.00;;
37169;SDS011;23062;13.952;100.608;2023-10-19T17:44:35;121.00;;;91.00;;
37169;SDS011;23062;13.952;100.608;2023-10-19T17:49:15;124.00;;;94.00;;
37169;SDS011;23062;13.952;100.608;2023-10-19T17:54:00;120.00;;;96.00;;
37169;SDS011;23062;13.952;100.608;2023-10-19T17:58:46;107.33;;;84.93;;
37169;SDS011;23062;13.952;100.608;2023-10-19T18:03:33;115.00;;;91.00;;
37169;SDS011;23062;13.952;100.608;2023-10-19T18:08:15;126.00;;;94.00;;
37169;SDS011;23062;13.952;100.608;2023-10-19T18:12:53;124.00;;;95.00;;
37169;SDS011;23062;13.952;100.608;2023-10-19T18:17:31;122.00;;;91.00;;
37169;SDS011;23062;13.952;100.608;2023-10-19T18:22:08;124.00;;;92.00;;
37169;SDS011;23062;13.952;100.608;2023-10-19T18:26:52;120.00;;;91.00;;
37169;SDS011;23062;13.952;100.608;2023-10-19T18:31:37;106.00;;;81.00;;
37169;SDS011;23062;13.952;100.608;2023-10-19T18:36:23;114.00;;;86.00;;
37169;SDS011;23062;13.952;100.608;2023-10-19T18:41:08;117.00;;;88.00;;
37169;SDS011;23062;13.952;100.608;2023-10-19T18:45:58;110.00;;;87.00;;
37169;SDS011;23062;13.952;100.608;2023-10-19T18:50:54;112.00;;;89.00;;
37169;SDS011;23062;13.952;100.608;2023-10-19T18:55:41;121.00;;;94.00;;
37169;SDS011;23062;13.952;100.608;2023-10-19T19:00:28;116.00;;;86.00;;
37169;SDS011;23062;13.952;100.608;2023-10-19T19:05:10;117.00;;;87.00;;
37169;SDS011;23062;13.952;100.608;2023-10-19T19:09:56;121.00;;;90.00;;
37169;SDS011;23062;13.952;100.608;2023-10-19T19:14:40;117.00;;;90.00;;
37169;SDS011;23062;13.952;100.608;2023-10-19T19:19:22;106.40;;;79.33;;
37169;SDS011;23062;13.952;100.608;2023-10-19T19:24:05;108.00;;;86.00;;
37169;SDS011;23062;13.952;100.608;2023-10-19T19:28:51;112.00;;;88.00;;
37169;SDS011;23062;13.952;100.608;2023-10-19T19:33:33;116.00;;;86.00;;
37169;SDS011;23062;13.952;100.608;2023-10-19T19:38:17;110.00;;;82.00;;
37169;SDS011;23062;13.952;100.608;2023-10-19T19:42:56;107.00;;;80.00;;
37169;SDS011;23062;13.952;100.608;2023-10-19T19:47:40;91.00;;;70.00;;
37169;SDS011;23062;13.952;100.608;2023-10-19T19:52:20;89.00;;;68.00;;
37169;SDS011;23062;13.952;100.608;2023-10-19T19:57:04;82.00;;;64.00;;
37169;SDS011;23062;13.952;100.608;2023-10-19T20:01:42;75.00;;;59.00;;
37169;SDS011;23062;13.952;100.608;2023-10-19T20:06:25;72.00;;;56.00;;
37169;SDS011;23062;13.952;100.608;2023-10-19T20:11:16;69.07;;;51.33;;
37169;SDS011;23062;13.952;100.608;2023-10-19T20:15:56;75.00;;;56.00;;
37169;SDS011;23062;13.952;100.608;2023-10-19T20:20:40;71.00;;;53.00;;
37169;SDS011;23062;13.952;100.608;2023-10-19T20:25:18;67.00;;;50.00;;
37169;SDS011;23062;13.952;100.608;2023-10-19T20:30:01;63.00;;;47.00;;
37169;SDS011;23062;13.952;100.608;2023-10-19T20:34:42;62.00;;;46.00;;
37169;SDS011;23062;13.952;100.608;2023-10-19T20:39:23;57.00;;;44.00;;
37169;SDS011;23062;13.952;100.608;2023-10-19T20:44:05;60.00;;;45.00;;
37169;SDS011;23062;13.952;100.608;2023-10-19T20:48:46;54.00;;;41.00;;
37169;SDS011;23062;13.952;100.608;2023-10-19T20:53:30;54.00;;;39.00;;
37169;SDS011;23062;13.952;100.608;2023-10-19T20:58:07;56.00;;;43.00;;
37169;SDS011;23062;13.952;100.608;2023-10-19T21:02:48;52.00;;;39.00;;
37169;SDS011;23062;13.952;100.608;2023-10-19T21:07:30;45.00;;;34.00;;
37169;SDS011;23062;13.952;100.608;2023-10-19T21:12:10;40.00;;;31.00;;
37169;SDS011;23062;13.952;100.608;2023-10-19T21:16:54;42.00;;;31.00;;
37169;SDS011;23062;13.952;100.608;2023-10-19T21:21:39;36.40;;;27.07;;
37169;SDS011;23062;13.952;100.608;2023-10-19T21:26:25;41.00;;;31.00;;
37169;SDS011;23062;13.952;100.608;2023-10-19T21:31:07;42.00;;;31.00;;
37169;SDS011;23062;13.952;100.608;2023-10-19T21:35:52;44.00;;;33.00;;
37169;SDS011;23062;13.952;100.608;2023-10-19T21:40:45;40.00;;;31.00;;
37169;SDS011;23062;13.952;100.608;2023-10-19T21:45:25;43.00;;;31.00;;
37169;SDS011;23062;13.952;100.608;2023-10-19T21:50:10;45.00;;;33.00;;
37169;SDS011;23062;13.952;100.608;2023-10-19T21:54:47;43.00;;;32.00;;
37169;SDS011;23062;13.952;100.608;2023-10-19T21:59:31;39.00;;;29.00;;
37169;SDS011;23062;13.952;100.608;2023-10-19T22:04:14;46.00;;;34.00;;
37169;SDS011;23062;13.952;100.608;2023-10-19T22:08:51;45.00;;;34.00;;
37169;SDS011;23062;13.952;100.608;2023-10-19T22:13:35;43.00;;;32.00;;
37169;SDS011;23062;13.952;100.608;2023-10-19T22:18:14;40.13;;;29.87;;
37169;SDS011;23062;13.952;100.608;2023-10-19T22:22:59;42.00;;;32.00;;
37169;SDS011;23062;13.952;100.608;2023-10-19T22:27:40;45.00;;;33.00;;
37169;SDS011;23062;13.952;100.608;2023-10-19T22:32:17;42.00;;;33.00;;
37169;SDS011;23062;13.952;100.608;2023-10-19T22:37:03;43.00;;;34.00;;
37169;SDS011;23062;13.952;100.608;2023-10-19T22:41:47;47.00;;;34.00;;
37169;SDS011;23062;13.952;100.608;2023-10-19T22:46:23;47.00;;;34.00;;
37169;SDS011;23062;13.952;100.608;2023-10-19T22:51:00;42.00;;;33.00;;
37169;SDS011;23062;13.952;100.608;2023-10-19T22:55:45;46.00;;;36.00;;
37169;SDS011;23062;13.952;100.608;2023-10-19T23:00:21;46.00;;;35.00;;
37169;SDS011;23062;13.952;100.608;2023-10-19T23:05:05;44.00;;;33.00;;
37169;SDS011;23062;13.952;100.608;2023-10-19T23:09:49;44.00;;;35.00;;
37169;SDS011;23062;13.952;100.608;2023-10-19T23:14:35;40.00;;;31.00;;
37169;SDS011;23062;13.952;100.608;2023-10-19T23:19:20;44.00;;;32.00;;
37169;SDS011;23062;13.952;100.608;2023-10-19T23:23:56;41.00;;;32.00;;
37169;SDS011;23062;13.952;100.608;2023-10-19T23:28:38;44.00;;;33.00;;
37169;SDS011;23062;13.952;100.608;2023-10-19T23:33:22;41.00;;;32.00;;
37169;SDS011;23062;13.952;100.608;2023-10-19T23:38:06;41.00;;;32.00;;
37169;SDS011;23062;13.952;100.608;2023-10-19T23:42:50;41.00;;;30.00;;
37169;SDS011;23062;13.952;100.608;2023-10-19T23:47:27;44.00;;;34.00;;
37169;SDS011;23062;13.952;100.608;2023-10-19T23:52:10;45.00;;;35.00;;
37169;SDS011;23062;13.952;100.608;2023-10-19T23:56:54;42.00;;;33.00;;
